sensor_id;sensor_type;location;lat;lon;timestamp;pressure;altitude;pressure_sealevel;temperature;humidity
38054;BME280;23859;50.672;7.164;2023-10-08T00:02:26;35074.41;;;-140.95;70.78
38054;BME280;23859;50.672;7.164;2023-10-08T00:04:53;35068.38;;;-140.95;70.81
38054;BME280;23859;50.672;7.164;2023-10-08T00:07:23;35092.50;;;-140.95;71.15
38054;BME280;23859;50.672;7.164;2023-10-08T00:09:54;35110.56;;;-140.95;71.46
38054;BME280;23859;50.672;7.164;2023-10-08T00:12:21;35114.59;;;-140.95;71.47
38054;BME280;23859;50.672;7.164;2023-10-08T00:14:47;35116.59;;;-140.95;71.87
38054;BME280;23859;50.672;7.164;2023-10-08T00:17:19;35098.53;;;-140.95;71.73
38054;BME280;23859;50.672;7.164;2023-10-08T00:19:45;35076.44;;;-140.95;71.45
38054;BME280;23859;50.672;7.164;2023-10-08T00:22:11;35132.66;;;-140.95;71.56
38054;BME280;23859;50.672;7.164;2023-10-08T00:24:40;35088.47;;;-140.95;71.18
38054;BME280;23859;50.672;7.164;2023-10-08T00:27:08;35088.47;;;-140.95;70.77
38054;BME280;23859;50.672;7.164;2023-10-08T00:29:34;35030.22;;;-140.95;70.19
38054;BME280;23859;50.672;7.164;2023-10-08T00:32:05;35060.34;;;-140.95;70.83
38054;BME280;23859;50.672;7.164;2023-10-08T00:34:38;35062.38;;;-140.95;70.47
38054;BME280;23859;50.672;7.164;2023-10-08T00:37:07;35074.41;;;-140.95;70.26
38054;BME280;23859;50.672;7.164;2023-10-08T00:39:35;35062.38;;;-140.95;69.84
38054;BME280;23859;50.672;7.164;2023-10-08T00:42:03;35092.50;;;-140.95;70.33
38054;BME280;23859;50.672;7.164;2023-10-08T00:44:34;35096.50;;;-140.95;69.99
38054;BME280;23859;50.672;7.164;2023-10-08T00:47:17;35094.50;;;-140.95;70.47
38054;BME280;23859;50.672;7.164;2023-10-08T00:49:47;35108.56;;;-140.95;70.96
38054;BME280;23859;50.672;7.164;2023-10-08T00:52:28;35148.75;;;-140.95;71.13
38054;BME280;23859;50.672;7.164;2023-10-08T00:54:56;35108.56;;;-140.95;70.79
38054;BME280;23859;50.672;7.164;2023-10-08T00:57:30;35144.72;;;-140.95;70.74
38054;BME280;23859;50.672;7.164;2023-10-08T01:00:00;35148.75;;;-140.95;70.45
38054;BME280;23859;50.672;7.164;2023-10-08T01:02:28;35140.72;;;-140.95;70.15
38054;BME280;23859;50.672;7.164;2023-10-08T01:05:02;35124.63;;;-140.95;70.18
38054;BME280;23859;50.672;7.164;2023-10-08T01:07:29;35136.69;;;-140.95;70.42
38054;BME280;23859;50.672;7.164;2023-10-08T01:09:56;35217.03;;;-140.95;71.04
38054;BME280;23859;50.672;7.164;2023-10-08T01:12:26;35172.84;;;-140.95;71.32
38054;BME280;23859;50.672;7.164;2023-10-08T01:15:00;35176.88;;;-140.95;71.42
38054;BME280;23859;50.672;7.164;2023-10-08T01:17:49;35190.94;;;-140.95;71.65
38054;BME280;23859;50.672;7.164;2023-10-08T01:20:34;35192.94;;;-140.95;71.69
38054;BME280;23859;50.672;7.164;2023-10-08T01:23:07;35430.00;;;-140.95;71.57
38054;BME280;23859;50.672;7.164;2023-10-08T01:29:00;35255.22;;;-140.95;72.38
38054;BME280;23859;50.672;7.164;2023-10-08T01:31:32;35213.03;;;-140.95;72.50
38054;BME280;23859;50.672;7.164;2023-10-08T01:33:58;35217.03;;;-140.95;72.14
38054;BME280;23859;50.672;7.164;2023-10-08T01:36:26;35184.91;;;-140.95;71.84
38054;BME280;23859;50.672;7.164;2023-10-08T01:38:52;35227.09;;;-140.95;71.96
38054;BME280;23859;50.672;7.164;2023-10-08T01:41:21;35249.19;;;-140.95;72.34
38054;BME280;23859;50.672;7.164;2023-10-08T01:44:06;35237.13;;;-140.95;72.33
38054;BME280;23859;50.672;7.164;2023-10-08T01:46:34;35243.16;;;-140.95;72.11
38054;BME280;23859;50.672;7.164;2023-10-08T01:49:00;35251.19;;;-140.95;71.95
38054;BME280;23859;50.672;7.164;2023-10-08T01:51:30;35225.06;;;-140.95;72.46
38054;BME280;23859;50.672;7.164;2023-10-08T01:54:04;35271.28;;;-140.95;72.50
38054;BME280;23859;50.672;7.164;2023-10-08T01:56:37;35243.16;;;-140.95;72.86
38054;BME280;23859;50.672;7.164;2023-10-08T01:59:04;35257.22;;;-140.95;72.85
38054;BME280;23859;50.672;7.164;2023-10-08T02:01:30;35297.41;;;-140.95;73.41
38054;BME280;23859;50.672;7.164;2023-10-08T02:03:56;35289.38;;;-140.95;73.09
38054;BME280;23859;50.672;7.164;2023-10-08T02:06:22;35285.34;;;-140.95;73.17
38054;BME280;23859;50.672;7.164;2023-10-08T02:08:48;35283.34;;;-140.95;73.40
38054;BME280;23859;50.672;7.164;2023-10-08T02:11:14;35259.22;;;-140.95;73.20
38054;BME280;23859;50.672;7.164;2023-10-08T02:13:41;35253.19;;;-140.95;73.11
38054;BME280;23859;50.672;7.164;2023-10-08T02:16:08;35269.28;;;-140.95;72.59
38054;BME280;23859;50.672;7.164;2023-10-08T02:18:34;35305.44;;;-140.95;73.20
38054;BME280;23859;50.672;7.164;2023-10-08T02:21:01;35327.53;;;-140.95;73.84
38054;BME280;23859;50.672;7.164;2023-10-08T02:23:27;35317.50;;;-140.95;74.03
38054;BME280;23859;50.672;7.164;2023-10-08T02:25:53;35341.59;;;-140.95;74.33
38054;BME280;23859;50.672;7.164;2023-10-08T02:28:20;35357.66;;;-140.95;74.12
38054;BME280;23859;50.672;7.164;2023-10-08T02:30:50;35369.72;;;-140.95;73.98
38054;BME280;23859;50.672;7.164;2023-10-08T02:33:17;35357.66;;;-140.95;74.35
38054;BME280;23859;50.672;7.164;2023-10-08T02:35:44;35361.69;;;-140.95;74.61
38054;BME280;23859;50.672;7.164;2023-10-08T02:38:13;35385.78;;;-140.95;75.12
38054;BME280;23859;50.672;7.164;2023-10-08T02:40:42;35357.66;;;-140.95;74.55
38054;BME280;23859;50.672;7.164;2023-10-08T02:43:15;35369.72;;;-140.95;74.49
38054;BME280;23859;50.672;7.164;2023-10-08T02:45:46;35361.69;;;-140.95;74.80
38054;BME280;23859;50.672;7.164;2023-10-08T02:48:15;35377.75;;;-140.95;75.14
38054;BME280;23859;50.672;7.164;2023-10-08T02:50:42;35397.84;;;-140.95;75.19
38054;BME280;23859;50.672;7.164;2023-10-08T02:53:08;35371.72;;;-140.95;75.29
38054;BME280;23859;50.672;7.164;2023-10-08T02:55:38;35335.56;;;-140.95;74.18
38054;BME280;23859;50.672;7.164;2023-10-08T02:58:10;35361.69;;;-140.95;74.37
38054;BME280;23859;50.672;7.164;2023-10-08T03:00:47;35383.78;;;-140.95;74.71
38054;BME280;23859;50.672;7.164;2023-10-08T03:03:16;35375.75;;;-140.95;75.46
38054;BME280;23859;50.672;7.164;2023-10-08T03:05:45;35448.06;;;-140.95;75.59
38054;BME280;23859;50.672;7.164;2023-10-08T03:08:13;35421.94;;;-140.95;75.36
38054;BME280;23859;50.672;7.164;2023-10-08T03:10:39;35393.81;;;-140.95;74.58
38054;BME280;23859;50.672;7.164;2023-10-08T03:13:08;35438.03;;;-140.95;74.55
38054;BME280;23859;50.672;7.164;2023-10-08T03:15:36;35379.75;;;-140.95;74.24
38054;BME280;23859;50.672;7.164;2023-10-08T03:18:07;35405.88;;;-140.95;73.86
38054;BME280;23859;50.672;7.164;2023-10-08T03:20:39;35417.94;;;-140.95;74.05
38054;BME280;23859;50.672;7.164;2023-10-08T03:23:09;35365.69;;;-140.95;73.71
38054;BME280;23859;50.672;7.164;2023-10-08T03:25:42;35405.88;;;-140.95;73.54
38054;BME280;23859;50.672;7.164;2023-10-08T03:28:09;35391.81;;;-140.95;73.82
38054;BME280;23859;50.672;7.164;2023-10-08T03:30:35;35379.75;;;-140.95;72.82
38054;BME280;23859;50.672;7.164;2023-10-08T03:33:14;35357.66;;;-140.95;72.62
38054;BME280;23859;50.672;7.164;2023-10-08T03:35:48;35391.81;;;-140.95;72.54
38054;BME280;23859;50.672;7.164;2023-10-08T03:38:21;35409.91;;;-140.95;72.45
38054;BME280;23859;50.672;7.164;2023-10-08T03:40:57;35381.78;;;-140.95;72.87
38054;BME280;23859;50.672;7.164;2023-10-08T03:43:29;35383.78;;;-140.95;72.64
38054;BME280;23859;50.672;7.164;2023-10-08T03:46:09;35339.59;;;-140.95;72.27
38054;BME280;23859;50.672;7.164;2023-10-08T03:48:44;35385.78;;;-140.95;72.77
38054;BME280;23859;50.672;7.164;2023-10-08T03:51:12;35365.69;;;-140.95;72.19
38054;BME280;23859;50.672;7.164;2023-10-08T03:53:41;35369.72;;;-140.95;72.32
38054;BME280;23859;50.672;7.164;2023-10-08T03:56:27;35349.63;;;-140.95;73.25
38054;BME280;23859;50.672;7.164;2023-10-08T03:58:57;35365.69;;;-140.95;72.04
38054;BME280;23859;50.672;7.164;2023-10-08T04:01:26;35367.72;;;-140.95;73.07
38054;BME280;23859;50.672;7.164;2023-10-08T04:03:57;35381.78;;;-140.95;73.15
38054;BME280;23859;50.672;7.164;2023-10-08T04:06:28;35353.66;;;-140.95;73.36
38054;BME280;23859;50.672;7.164;2023-10-08T04:09:00;35349.63;;;-140.95;72.90
38054;BME280;23859;50.672;7.164;2023-10-08T04:11:32;35341.59;;;-140.95;72.44
38054;BME280;23859;50.672;7.164;2023-10-08T04:14:02;35403.88;;;-140.95;73.08
38054;BME280;23859;50.672;7.164;2023-10-08T04:16:28;35371.72;;;-140.95;73.84
38054;BME280;23859;50.672;7.164;2023-10-08T04:18:56;35369.72;;;-140.95;73.68
38054;BME280;23859;50.672;7.164;2023-10-08T04:21:24;35373.75;;;-140.95;73.45
38054;BME280;23859;50.672;7.164;2023-10-08T04:23:54;35737.38;;;-140.95;73.15
38054;BME280;23859;50.672;7.164;2023-10-08T04:26:25;35351.63;;;-140.95;72.92
38054;BME280;23859;50.672;7.164;2023-10-08T04:28:55;35361.69;;;-140.95;72.72
38054;BME280;23859;50.672;7.164;2023-10-08T04:31:26;35361.69;;;-140.95;72.92
38054;BME280;23859;50.672;7.164;2023-10-08T04:34:02;35371.72;;;-140.95;73.34
38054;BME280;23859;50.672;7.164;2023-10-08T04:36:34;35357.66;;;-140.95;73.38
38054;BME280;23859;50.672;7.164;2023-10-08T04:39:00;35353.66;;;-140.95;73.06
38054;BME280;23859;50.672;7.164;2023-10-08T04:41:31;35349.63;;;-140.95;72.86
38054;BME280;23859;50.672;7.164;2023-10-08T04:43:59;35450.06;;;-140.95;73.02
38054;BME280;23859;50.672;7.164;2023-10-08T04:46:29;35335.56;;;-140.95;72.89
38054;BME280;23859;50.672;7.164;2023-10-08T04:49:04;35341.59;;;-140.95;72.91
38054;BME280;23859;50.672;7.164;2023-10-08T04:51:45;35365.69;;;-140.95;73.24
38054;BME280;23859;50.672;7.164;2023-10-08T04:54:12;35347.63;;;-140.95;72.76
38054;BME280;23859;50.672;7.164;2023-10-08T04:56:44;35377.75;;;-140.95;73.04
38054;BME280;23859;50.672;7.164;2023-10-08T04:59:10;35371.72;;;-140.95;72.98
38054;BME280;23859;50.672;7.164;2023-10-08T05:01:37;35369.72;;;-140.95;73.49
38054;BME280;23859;50.672;7.164;2023-10-08T05:04:06;35381.78;;;-140.95;73.95
38054;BME280;23859;50.672;7.164;2023-10-08T05:06:33;35367.72;;;-140.95;73.84
38054;BME280;23859;50.672;7.164;2023-10-08T05:09:03;35341.59;;;-140.95;73.10
38054;BME280;23859;50.672;7.164;2023-10-08T05:11:48;35375.75;;;-140.95;73.17
38054;BME280;23859;50.672;7.164;2023-10-08T05:14:22;35373.75;;;-140.95;73.35
38054;BME280;23859;50.672;7.164;2023-10-08T05:16:58;35369.72;;;-140.95;73.41
38054;BME280;23859;50.672;7.164;2023-10-08T05:19:41;35377.75;;;-140.95;73.62
38054;BME280;23859;50.672;7.164;2023-10-08T05:22:16;35353.66;;;-140.95;73.35
38054;BME280;23859;50.672;7.164;2023-10-08T05:24:56;35383.78;;;-140.95;73.71
38054;BME280;23859;50.672;7.164;2023-10-08T05:27:34;35357.66;;;-140.95;74.44
38054;BME280;23859;50.672;7.164;2023-10-08T05:30:07;35337.56;;;-140.95;74.68
38054;BME280;23859;50.672;7.164;2023-10-08T05:32:46;35343.59;;;-140.95;74.62
38054;BME280;23859;50.672;7.164;2023-10-08T05:35:33;35347.63;;;-140.95;74.10
38054;BME280;23859;50.672;7.164;2023-10-08T05:38:16;35367.72;;;-140.95;74.36
38054;BME280;23859;50.672;7.164;2023-10-08T05:40:48;35325.53;;;-140.95;73.68
38054;BME280;23859;50.672;7.164;2023-10-08T05:43:31;35373.75;;;-140.95;74.29
38054;BME280;23859;50.672;7.164;2023-10-08T05:46:10;35375.75;;;-140.95;74.43
38054;BME280;23859;50.672;7.164;2023-10-08T05:48:45;35361.69;;;-140.95;74.18
38054;BME280;23859;50.672;7.164;2023-10-08T05:51:17;35405.88;;;-140.95;74.52
38054;BME280;23859;50.672;7.164;2023-10-08T05:57:00;35333.56;;;-140.95;73.47
38054;BME280;23859;50.672;7.164;2023-10-08T05:59:42;35379.75;;;-140.95;73.62
38054;BME280;23859;50.672;7.164;2023-10-08T06:02:22;35381.78;;;-140.95;74.31
38054;BME280;23859;50.672;7.164;2023-10-08T06:05:02;35347.63;;;-140.95;74.15
38054;BME280;23859;50.672;7.164;2023-10-08T06:07:45;35387.81;;;-140.95;74.46
38054;BME280;23859;50.672;7.164;2023-10-08T06:10:33;35385.78;;;-140.95;74.30
38054;BME280;23859;50.672;7.164;2023-10-08T06:13:07;35351.63;;;-140.95;74.31
38054;BME280;23859;50.672;7.164;2023-10-08T06:15:47;35347.63;;;-140.95;73.78
38054;BME280;23859;50.672;7.164;2023-10-08T06:18:24;35341.59;;;-140.95;73.83
38054;BME280;23859;50.672;7.164;2023-10-08T06:20:57;35351.63;;;-140.95;73.61
38054;BME280;23859;50.672;7.164;2023-10-08T06:23:28;35377.75;;;-140.95;74.37
38054;BME280;23859;50.672;7.164;2023-10-08T06:25:55;35337.56;;;-140.95;73.50
38054;BME280;23859;50.672;7.164;2023-10-08T06:28:31;35363.69;;;-140.95;73.54
38054;BME280;23859;50.672;7.164;2023-10-08T06:31:01;35321.50;;;-140.95;73.56
38054;BME280;23859;50.672;7.164;2023-10-08T06:33:29;35299.41;;;-140.95;73.39
38054;BME280;23859;50.672;7.164;2023-10-08T06:35:59;35321.50;;;-140.95;72.77
38054;BME280;23859;50.672;7.164;2023-10-08T06:38:31;35291.38;;;-140.95;72.77
38054;BME280;23859;50.672;7.164;2023-10-08T06:40:59;35299.41;;;-140.95;72.55
38054;BME280;23859;50.672;7.164;2023-10-08T06:43:35;35261.25;;;-140.95;72.96
38054;BME280;23859;50.672;7.164;2023-10-08T06:46:03;33815.09;;;-140.95;72.66
38054;BME280;23859;50.672;7.164;2023-10-08T06:48:29;35269.28;;;-140.95;72.63
38054;BME280;23859;50.672;7.164;2023-10-08T06:50:56;35235.13;;;-140.95;72.60
38054;BME280;23859;50.672;7.164;2023-10-08T06:53:33;35223.06;;;-140.95;72.53
38054;BME280;23859;50.672;7.164;2023-10-08T06:56:00;35194.94;;;-140.95;72.62
38054;BME280;23859;50.672;7.164;2023-10-08T06:58:31;35172.84;;;-140.95;72.00
38054;BME280;23859;50.672;7.164;2023-10-08T07:01:00;35172.84;;;-140.95;70.78
38054;BME280;23859;50.672;7.164;2023-10-08T07:03:31;35144.72;;;-140.95;70.59
38054;BME280;23859;50.672;7.164;2023-10-08T07:05:58;35196.94;;;-140.95;70.88
38054;BME280;23859;50.672;7.164;2023-10-08T07:08:26;35138.69;;;-140.95;70.84
38054;BME280;23859;50.672;7.164;2023-10-08T07:10:53;35140.72;;;-140.95;70.91
38054;BME280;23859;50.672;7.164;2023-10-08T07:13:20;35184.91;;;-140.95;70.85
38054;BME280;23859;50.672;7.164;2023-10-08T07:15:51;35168.84;;;-140.95;71.40
38054;BME280;23859;50.672;7.164;2023-10-08T07:18:18;35144.72;;;-140.95;70.86
38054;BME280;23859;50.672;7.164;2023-10-08T07:20:55;35126.66;;;-140.95;71.00
38054;BME280;23859;50.672;7.164;2023-10-08T07:23:27;35084.47;;;-140.95;70.54
38054;BME280;23859;50.672;7.164;2023-10-08T07:26:02;35112.59;;;-140.95;70.21
38054;BME280;23859;50.672;7.164;2023-10-08T07:28:38;35118.59;;;-140.95;69.42
38054;BME280;23859;50.672;7.164;2023-10-08T07:31:14;35094.50;;;-140.95;68.96
38054;BME280;23859;50.672;7.164;2023-10-08T07:33:53;35056.34;;;-140.95;68.33
38054;BME280;23859;50.672;7.164;2023-10-08T07:36:23;35018.16;;;-140.95;67.46
38054;BME280;23859;50.672;7.164;2023-10-08T07:38:50;35024.19;;;-140.95;67.33
38054;BME280;23859;50.672;7.164;2023-10-08T07:41:16;35024.19;;;-140.95;67.76
38054;BME280;23859;50.672;7.164;2023-10-08T07:43:45;35058.34;;;-140.95;68.30
38054;BME280;23859;50.672;7.164;2023-10-08T07:46:22;35056.34;;;-140.95;69.16
38054;BME280;23859;50.672;7.164;2023-10-08T07:48:48;35072.41;;;-140.95;69.11
38054;BME280;23859;50.672;7.164;2023-10-08T07:51:16;35062.38;;;-140.95;69.16
38054;BME280;23859;50.672;7.164;2023-10-08T07:53:48;35044.28;;;-140.95;69.57
38054;BME280;23859;50.672;7.164;2023-10-08T07:56:14;35036.25;;;-140.95;69.63
38054;BME280;23859;50.672;7.164;2023-10-08T07:58:40;35054.31;;;-140.95;69.83
38054;BME280;23859;50.672;7.164;2023-10-08T08:01:09;35004.09;;;-140.95;69.31
38054;BME280;23859;50.672;7.164;2023-10-08T08:03:36;34992.06;;;-140.95;69.03
38054;BME280;23859;50.672;7.164;2023-10-08T08:06:06;34951.88;;;-140.95;68.90
38054;BME280;23859;50.672;7.164;2023-10-08T08:08:33;34857.47;;;-140.95;68.46
38054;BME280;23859;50.672;7.164;2023-10-08T08:11:03;34815.28;;;-140.95;66.70
38054;BME280;23859;50.672;7.164;2023-10-08T08:13:33;34749.00;;;-140.95;65.49
38054;BME280;23859;50.672;7.164;2023-10-08T08:16:00;34692.75;;;-140.95;64.07
38054;BME280;23859;50.672;7.164;2023-10-08T08:18:37;34783.16;;;-140.95;62.87
38054;BME280;23859;50.672;7.164;2023-10-08T08:21:03;34759.03;;;-140.95;63.40
38054;BME280;23859;50.672;7.164;2023-10-08T08:23:32;34706.81;;;-140.95;62.57
38054;BME280;23859;50.672;7.164;2023-10-08T08:25:58;34710.84;;;-140.95;62.61
38054;BME280;23859;50.672;7.164;2023-10-08T08:28:38;34706.81;;;-140.95;62.79
38054;BME280;23859;50.672;7.164;2023-10-08T08:31:05;34688.75;;;-140.95;62.59
38054;BME280;23859;50.672;7.164;2023-10-08T08:33:40;34602.38;;;-140.95;61.45
38054;BME280;23859;50.672;7.164;2023-10-08T08:36:19;34642.53;;;-140.95;60.38
38054;BME280;23859;50.672;7.164;2023-10-08T08:38:45;34509.97;;;-140.95;59.28
38054;BME280;23859;50.672;7.164;2023-10-08T08:41:12;34441.69;;;-140.95;58.46
38054;BME280;23859;50.672;7.164;2023-10-08T08:43:39;34401.53;;;-140.95;57.61
38054;BME280;23859;50.672;7.164;2023-10-08T08:46:10;34351.31;;;-140.95;56.32
38054;BME280;23859;50.672;7.164;2023-10-08T08:48:41;34252.91;;;-140.95;55.95
38054;BME280;23859;50.672;7.164;2023-10-08T08:51:07;34158.50;;;-140.95;54.36
38054;BME280;23859;50.672;7.164;2023-10-08T08:53:36;34160.50;;;-140.95;52.72
38054;BME280;23859;50.672;7.164;2023-10-08T08:56:02;34086.22;;;-140.95;51.84
38054;BME280;23859;50.672;7.164;2023-10-08T08:58:33;34102.28;;;-140.95;49.91
38054;BME280;23859;50.672;7.164;2023-10-08T09:01:00;34072.16;;;-140.95;50.46
38054;BME280;23859;50.672;7.164;2023-10-08T09:03:27;33991.81;;;-140.95;50.26
38054;BME280;23859;50.672;7.164;2023-10-08T09:05:57;34046.03;;;-140.95;49.52
38054;BME280;23859;50.672;7.164;2023-10-08T09:08:27;33961.69;;;-140.95;49.44
38054;BME280;23859;50.672;7.164;2023-10-08T09:10:57;33901.44;;;-140.95;48.86
38054;BME280;23859;50.672;7.164;2023-10-08T09:13:27;33915.50;;;-140.95;49.06
38054;BME280;23859;50.672;7.164;2023-10-08T09:16:02;33953.66;;;-140.95;47.87
38054;BME280;23859;50.672;7.164;2023-10-08T09:18:30;33997.84;;;-140.95;48.69
38054;BME280;23859;50.672;7.164;2023-10-08T09:21:07;34015.91;;;-140.95;49.16
38054;BME280;23859;50.672;7.164;2023-10-08T09:23:42;33897.44;;;-140.95;48.63
38054;BME280;23859;50.672;7.164;2023-10-08T09:26:14;33805.06;;;-140.95;48.16
38054;BME280;23859;50.672;7.164;2023-10-08T09:28:46;33821.13;;;-140.95;47.48
38054;BME280;23859;50.672;7.164;2023-10-08T09:31:13;33740.78;;;-140.95;47.16
38054;BME280;23859;50.672;7.164;2023-10-08T09:33:39;33712.69;;;-140.95;47.15
38054;BME280;23859;50.672;7.164;2023-10-08T09:36:08;33710.69;;;-140.95;48.18
38054;BME280;23859;50.672;7.164;2023-10-08T09:38:37;33742.81;;;-140.95;47.88
38054;BME280;23859;50.672;7.164;2023-10-08T09:41:03;33748.81;;;-140.95;47.58
38054;BME280;23859;50.672;7.164;2023-10-08T09:43:30;33724.72;;;-140.95;46.82
38054;BME280;23859;50.672;7.164;2023-10-08T09:46:08;33738.78;;;-140.95;48.51
38054;BME280;23859;50.672;7.164;2023-10-08T09:48:38;33724.72;;;-140.95;48.32
38054;BME280;23859;50.672;7.164;2023-10-08T09:51:10;33694.59;;;-140.95;48.36
38054;BME280;23859;50.672;7.164;2023-10-08T09:53:52;33722.72;;;-140.95;47.79
38054;BME280;23859;50.672;7.164;2023-10-08T09:56:25;33724.72;;;-140.95;48.34
38054;BME280;23859;50.672;7.164;2023-10-08T09:58:53;33686.56;;;-140.95;48.33
38054;BME280;23859;50.672;7.164;2023-10-08T10:01:20;33638.38;;;-140.95;48.21
38054;BME280;23859;50.672;7.164;2023-10-08T10:03:48;33634.38;;;-140.95;48.23
38054;BME280;23859;50.672;7.164;2023-10-08T10:06:17;33586.19;;;-140.95;47.47
38054;BME280;23859;50.672;7.164;2023-10-08T10:08:44;33529.94;;;-140.95;47.04
38054;BME280;23859;50.672;7.164;2023-10-08T10:11:11;33562.06;;;-140.95;48.27
38054;BME280;23859;50.672;7.164;2023-10-08T10:13:51;33552.03;;;-140.95;46.56
38054;BME280;23859;50.672;7.164;2023-10-08T10:16:25;33566.09;;;-140.95;47.57
38054;BME280;23859;50.672;7.164;2023-10-08T10:18:56;33206.66;;;-140.95;44.95
38054;BME280;23859;50.672;7.164;2023-10-08T10:21:28;32413.66;;;-140.95;40.41
38054;BME280;23859;50.672;7.164;2023-10-08T10:23:55;31970.03;;;-140.95;35.55
38054;BME280;23859;50.672;7.164;2023-10-08T10:31:44;30747.84;;;-140.95;31.37
38054;BME280;23859;50.672;7.164;2023-10-08T10:34:14;30641.47;;;-140.95;30.85
38054;BME280;23859;50.672;7.164;2023-10-08T10:36:43;31125.09;;;-140.95;31.88
38054;BME280;23859;50.672;7.164;2023-10-08T10:39:12;31056.84;;;-140.95;32.44
38054;BME280;23859;50.672;7.164;2023-10-08T10:41:53;31520.44;;;-140.95;34.77
38054;BME280;23859;50.672;7.164;2023-10-08T10:44:33;32554.19;;;-140.95;38.53
38054;BME280;23859;50.672;7.164;2023-10-08T10:47:03;32301.25;;;-140.95;37.62
38054;BME280;23859;50.672;7.164;2023-10-08T10:49:51;32389.56;;;-140.95;38.34
38054;BME280;23859;50.672;7.164;2023-10-08T10:52:32;32967.75;;;-140.95;41.01
38054;BME280;23859;50.672;7.164;2023-10-08T10:55:04;33029.97;;;-140.95;42.71
38054;BME280;23859;50.672;7.164;2023-10-08T10:57:54;33104.28;;;-140.95;42.26
38054;BME280;23859;50.672;7.164;2023-10-08T11:00:29;33098.25;;;-140.95;43.78
38054;BME280;23859;50.672;7.164;2023-10-08T11:03:01;33108.28;;;-140.95;43.79
38054;BME280;23859;50.672;7.164;2023-10-08T11:05:32;33349.22;;;-140.95;45.00
38054;BME280;23859;50.672;7.164;2023-10-08T11:08:04;33658.47;;;-140.95;47.59
38054;BME280;23859;50.672;7.164;2023-10-08T11:10:37;33650.44;;;-140.95;47.39
38054;BME280;23859;50.672;7.164;2023-10-08T11:13:12;33598.22;;;-140.95;48.04
38054;BME280;23859;50.672;7.164;2023-10-08T11:15:43;33537.97;;;-140.95;47.29
38054;BME280;23859;50.672;7.164;2023-10-08T11:18:16;33537.97;;;-140.95;47.25
38054;BME280;23859;50.672;7.164;2023-10-08T11:20:43;33582.16;;;-140.95;46.67
38054;BME280;23859;50.672;7.164;2023-10-08T11:23:30;33592.19;;;-140.95;47.11
38054;BME280;23859;50.672;7.164;2023-10-08T11:26:00;33644.41;;;-140.95;48.25
38054;BME280;23859;50.672;7.164;2023-10-08T11:28:41;33690.59;;;-140.95;48.67
38054;BME280;23859;50.672;7.164;2023-10-08T11:31:11;33730.75;;;-140.95;49.92
38054;BME280;23859;50.672;7.164;2023-10-08T11:33:44;33811.09;;;-140.95;49.37
38054;BME280;23859;50.672;7.164;2023-10-08T11:36:23;33915.50;;;-140.95;50.88
38054;BME280;23859;50.672;7.164;2023-10-08T11:38:57;33887.38;;;-140.95;51.94
38054;BME280;23859;50.672;7.164;2023-10-08T11:41:34;33859.28;;;-140.95;51.52
38054;BME280;23859;50.672;7.164;2023-10-08T11:44:18;33879.34;;;-140.95;51.43
38054;BME280;23859;50.672;7.164;2023-10-08T11:46:49;33766.91;;;-140.95;50.82
38054;BME280;23859;50.672;7.164;2023-10-08T11:49:19;33596.22;;;-140.95;49.75
38054;BME280;23859;50.672;7.164;2023-10-08T11:51:46;33586.19;;;-140.95;48.50
38054;BME280;23859;50.672;7.164;2023-10-08T11:54:13;33626.34;;;-140.95;48.89
38054;BME280;23859;50.672;7.164;2023-10-08T11:56:40;33602.25;;;-140.95;48.82
38054;BME280;23859;50.672;7.164;2023-10-08T11:59:07;33618.31;;;-140.95;48.45
38054;BME280;23859;50.672;7.164;2023-10-08T12:01:36;33698.63;;;-140.95;49.52
38054;BME280;23859;50.672;7.164;2023-10-08T12:04:04;33610.28;;;-140.95;49.29
38054;BME280;23859;50.672;7.164;2023-10-08T12:06:30;33618.31;;;-140.95;50.19
38054;BME280;23859;50.672;7.164;2023-10-08T12:08:57;33624.31;;;-140.95;49.35
38054;BME280;23859;50.672;7.164;2023-10-08T12:11:26;33546.00;;;-140.95;49.58
38054;BME280;23859;50.672;7.164;2023-10-08T12:14:04;33533.97;;;-140.95;48.91
38054;BME280;23859;50.672;7.164;2023-10-08T12:16:30;33576.13;;;-140.95;49.20
38054;BME280;23859;50.672;7.164;2023-10-08T12:19:01;33626.34;;;-140.95;49.00
38054;BME280;23859;50.672;7.164;2023-10-08T12:21:30;33674.53;;;-140.95;50.02
38054;BME280;23859;50.672;7.164;2023-10-08T12:23:59;33590.19;;;-140.95;49.87
38054;BME280;23859;50.672;7.164;2023-10-08T12:26:27;33473.72;;;-140.95;48.87
38054;BME280;23859;50.672;7.164;2023-10-08T12:28:53;33594.22;;;-140.95;49.18
38054;BME280;23859;50.672;7.164;2023-10-08T12:31:20;33505.84;;;-140.95;49.08
38054;BME280;23859;50.672;7.164;2023-10-08T12:33:51;33497.81;;;-140.95;48.60
38054;BME280;23859;50.672;7.164;2023-10-08T12:36:20;33411.47;;;-140.95;48.28
38054;BME280;23859;50.672;7.164;2023-10-08T12:38:49;33401.44;;;-140.95;48.52
38054;BME280;23859;50.672;7.164;2023-10-08T12:41:16;33433.56;;;-140.95;48.35
38054;BME280;23859;50.672;7.164;2023-10-08T12:43:45;33459.66;;;-140.95;48.23
38054;BME280;23859;50.672;7.164;2023-10-08T12:46:14;33590.19;;;-140.95;49.66
38054;BME280;23859;50.672;7.164;2023-10-08T12:48:56;33590.19;;;-140.95;49.97
38054;BME280;23859;50.672;7.164;2023-10-08T12:51:24;33658.47;;;-140.95;49.79
38054;BME280;23859;50.672;7.164;2023-10-08T12:53:54;33738.78;;;-140.95;51.23
38054;BME280;23859;50.672;7.164;2023-10-08T12:56:33;33702.63;;;-140.95;51.23
38054;BME280;23859;50.672;7.164;2023-10-08T12:59:11;33702.63;;;-140.95;51.06
38054;BME280;23859;50.672;7.164;2023-10-08T13:01:49;33706.66;;;-140.95;51.55
38054;BME280;23859;50.672;7.164;2023-10-08T13:04:21;33694.59;;;-140.95;51.13
38054;BME280;23859;50.672;7.164;2023-10-08T13:06:55;33706.66;;;-140.95;50.79
38054;BME280;23859;50.672;7.164;2023-10-08T13:09:26;33700.63;;;-140.95;51.28
38054;BME280;23859;50.672;7.164;2023-10-08T13:11:53;33700.63;;;-140.95;51.66
38054;BME280;23859;50.672;7.164;2023-10-08T13:14:19;33803.03;;;-140.95;51.63